Delafield, Wisconsin
Current Conditions -  °F | °C
As of 9:45 AM on Friday 28 Nov 2014 (Local Time) from KUES Reporting Station
Overcast Overcast  
Wind Chill:   Ceiling: 7000
Heat Index: 18°   Visibility: 7mi
Dew Point: 12°   Wind: 10mph
Humidity: 79%   Direction: 160°SSE
Pressure: 30.18"   Gusts: NA
Location:  43.06°N, 88.4°W
Report Text: KUES 281545Z 16009KT 7SM SCT050 OVC070 M08/M11 A3018
Loading
Personal Weather Stations






























Interactive Weather Map New forecast layout! Learn more

10-Day Weather Forecast

Advertisements
Track Severe Weather on mobile